Terminal Aerodrome Forecast
Issued by NWS Twin Cities, MN

Home | Current Version | Previous Version | Graphics & Text | Print | Product List | Glossary On
Versions: 1 2 3 4 5 6 7 8 9 10 11 12 13 14 15 16 17 18
000
FTUS43 KMPX 270524
TAFSTC
TAF
KSTC 270524Z 2706/2806 13003KT P6SM BKN070 BKN250
     FM271300 13005KT P6SM SCT040 BKN150
     FM271700 16009KT P6SM SCT050 BKN150
     FM280300 13005KT P6SM VCSH SCT040 BKN090=

USA.gov is the U.S. government's official web portal to all federal, state and local government web resources and services.